sensor_id;sensor_type;location;lat;lon;timestamp;P1;durP1;ratioP1;P2;durP2;ratioP2
11263;SDS011;5689;48.798;9.070;2022-12-07T00:01:18;1.23;;;1.23;;
11263;SDS011;5689;48.798;9.070;2022-12-07T00:03:48;1.20;;;1.20;;
11263;SDS011;5689;48.798;9.070;2022-12-07T00:06:17;1.00;;;1.00;;
11263;SDS011;5689;48.798;9.070;2022-12-07T00:08:46;1.00;;;1.00;;
11263;SDS011;5689;48.798;9.070;2022-12-07T00:11:15;0.97;;;0.97;;
11263;SDS011;5689;48.798;9.070;2022-12-07T00:13:46;1.10;;;1.10;;
11263;SDS011;5689;48.798;9.070;2022-12-07T00:16:18;1.10;;;1.10;;
11263;SDS011;5689;48.798;9.070;2022-12-07T00:18:48;1.23;;;1.23;;
11263;SDS011;5689;48.798;9.070;2022-12-07T00:21:17;1.17;;;1.17;;
11263;SDS011;5689;48.798;9.070;2022-12-07T00:23:47;1.00;;;1.00;;
11263;SDS011;5689;48.798;9.070;2022-12-07T00:26:17;1.13;;;1.13;;
11263;SDS011;5689;48.798;9.070;2022-12-07T00:28:48;1.23;;;1.23;;
11263;SDS011;5689;48.798;9.070;2022-12-07T00:31:17;1.00;;;1.00;;
11263;SDS011;5689;48.798;9.070;2022-12-07T00:33:47;1.13;;;1.13;;
11263;SDS011;5689;48.798;9.070;2022-12-07T00:36:17;1.17;;;1.17;;
11263;SDS011;5689;48.798;9.070;2022-12-07T00:38:50;1.10;;;1.10;;
11263;SDS011;5689;48.798;9.070;2022-12-07T00:41:18;1.00;;;1.00;;
11263;SDS011;5689;48.798;9.070;2022-12-07T00:43:49;1.37;;;1.37;;
11263;SDS011;5689;48.798;9.070;2022-12-07T00:46:18;1.17;;;1.17;;
11263;SDS011;5689;48.798;9.070;2022-12-07T00:48:47;1.10;;;1.10;;
11263;SDS011;5689;48.798;9.070;2022-12-07T00:51:16;1.00;;;1.00;;
11263;SDS011;5689;48.798;9.070;2022-12-07T00:53:46;1.20;;;1.20;;
11263;SDS011;5689;48.798;9.070;2022-12-07T00:56:15;1.30;;;1.30;;
11263;SDS011;5689;48.798;9.070;2022-12-07T00:58:50;0.90;;;0.90;;
11263;SDS011;5689;48.798;9.070;2022-12-07T01:01:20;1.10;;;1.10;;
11263;SDS011;5689;48.798;9.070;2022-12-07T01:03:48;0.90;;;0.90;;
11263;SDS011;5689;48.798;9.070;2022-12-07T01:06:17;1.00;;;1.00;;
11263;SDS011;5689;48.798;9.070;2022-12-07T01:08:46;0.93;;;0.93;;
11263;SDS011;5689;48.798;9.070;2022-12-07T01:11:15;0.97;;;0.97;;
11263;SDS011;5689;48.798;9.070;2022-12-07T01:13:44;1.00;;;1.00;;
11263;SDS011;5689;48.798;9.070;2022-12-07T01:16:14;1.00;;;1.00;;
11263;SDS011;5689;48.798;9.070;2022-12-07T01:18:45;1.00;;;1.00;;
11263;SDS011;5689;48.798;9.070;2022-12-07T01:21:15;0.87;;;0.87;;
11263;SDS011;5689;48.798;9.070;2022-12-07T01:23:44;0.90;;;0.90;;
11263;SDS011;5689;48.798;9.070;2022-12-07T01:26:13;1.20;;;1.20;;
11263;SDS011;5689;48.798;9.070;2022-12-07T01:28:42;1.10;;;1.10;;
11263;SDS011;5689;48.798;9.070;2022-12-07T01:31:11;1.10;;;1.10;;
11263;SDS011;5689;48.798;9.070;2022-12-07T01:33:42;1.10;;;1.10;;
11263;SDS011;5689;48.798;9.070;2022-12-07T01:36:13;1.07;;;1.07;;
11263;SDS011;5689;48.798;9.070;2022-12-07T01:38:42;0.90;;;0.90;;
11263;SDS011;5689;48.798;9.070;2022-12-07T01:41:11;1.00;;;1.00;;
11263;SDS011;5689;48.798;9.070;2022-12-07T01:46:38;1.20;;;1.20;;
11263;SDS011;5689;48.798;9.070;2022-12-07T01:49:08;1.00;;;1.00;;
11263;SDS011;5689;48.798;9.070;2022-12-07T01:51:40;1.00;;;1.00;;
11263;SDS011;5689;48.798;9.070;2022-12-07T01:54:09;1.10;;;1.10;;
11263;SDS011;5689;48.798;9.070;2022-12-07T01:56:40;0.90;;;0.90;;
11263;SDS011;5689;48.798;9.070;2022-12-07T01:59:13;1.00;;;1.00;;
11263;SDS011;5689;48.798;9.070;2022-12-07T02:01:43;0.97;;;0.97;;
11263;SDS011;5689;48.798;9.070;2022-12-07T02:04:11;1.00;;;1.00;;
11263;SDS011;5689;48.798;9.070;2022-12-07T02:06:39;0.90;;;0.90;;
11263;SDS011;5689;48.798;9.070;2022-12-07T02:09:10;0.90;;;0.90;;
11263;SDS011;5689;48.798;9.070;2022-12-07T02:11:38;1.03;;;1.03;;
11263;SDS011;5689;48.798;9.070;2022-12-07T02:14:08;1.00;;;1.00;;
11263;SDS011;5689;48.798;9.070;2022-12-07T02:16:38;0.90;;;0.90;;
11263;SDS011;5689;48.798;9.070;2022-12-07T02:19:23;1.13;;;1.13;;
11263;SDS011;5689;48.798;9.070;2022-12-07T02:22:18;1.10;;;1.10;;
11263;SDS011;5689;48.798;9.070;2022-12-07T02:25:03;1.10;;;1.10;;
11263;SDS011;5689;48.798;9.070;2022-12-07T02:27:44;1.00;;;1.00;;
11263;SDS011;5689;48.798;9.070;2022-12-07T02:30:15;1.03;;;1.03;;
11263;SDS011;5689;48.798;9.070;2022-12-07T02:32:48;0.90;;;0.90;;
11263;SDS011;5689;48.798;9.070;2022-12-07T02:35:24;1.00;;;1.00;;
11263;SDS011;5689;48.798;9.070;2022-12-07T02:37:59;0.90;;;0.90;;
11263;SDS011;5689;48.798;9.070;2022-12-07T02:40:33;0.97;;;0.97;;
11263;SDS011;5689;48.798;9.070;2022-12-07T02:43:06;1.00;;;1.00;;
11263;SDS011;5689;48.798;9.070;2022-12-07T02:45:40;0.97;;;0.97;;
11263;SDS011;5689;48.798;9.070;2022-12-07T02:48:12;1.00;;;1.00;;
11263;SDS011;5689;48.798;9.070;2022-12-07T02:50:44;0.90;;;0.90;;
11263;SDS011;5689;48.798;9.070;2022-12-07T02:53:29;0.87;;;0.87;;
11263;SDS011;5689;48.798;9.070;2022-12-07T02:55:59;0.97;;;0.97;;
11263;SDS011;5689;48.798;9.070;2022-12-07T02:58:32;0.90;;;0.90;;
11263;SDS011;5689;48.798;9.070;2022-12-07T03:01:15;1.00;;;1.00;;
11263;SDS011;5689;48.798;9.070;2022-12-07T03:03:55;0.90;;;0.90;;
11263;SDS011;5689;48.798;9.070;2022-12-07T03:06:31;1.03;;;1.03;;
11263;SDS011;5689;48.798;9.070;2022-12-07T03:09:07;1.10;;;1.10;;
11263;SDS011;5689;48.798;9.070;2022-12-07T03:11:42;1.20;;;1.20;;
11263;SDS011;5689;48.798;9.070;2022-12-07T03:14:15;0.80;;;0.80;;
11263;SDS011;5689;48.798;9.070;2022-12-07T03:16:52;1.07;;;1.07;;
11263;SDS011;5689;48.798;9.070;2022-12-07T03:19:26;1.07;;;1.07;;
11263;SDS011;5689;48.798;9.070;2022-12-07T03:21:55;1.17;;;1.17;;
11263;SDS011;5689;48.798;9.070;2022-12-07T03:24:26;0.93;;;0.93;;
11263;SDS011;5689;48.798;9.070;2022-12-07T03:26:58;1.00;;;1.00;;
11263;SDS011;5689;48.798;9.070;2022-12-07T03:29:31;0.90;;;0.90;;
11263;SDS011;5689;48.798;9.070;2022-12-07T03:32:05;1.00;;;1.00;;
11263;SDS011;5689;48.798;9.070;2022-12-07T03:34:39;1.13;;;1.13;;
11263;SDS011;5689;48.798;9.070;2022-12-07T03:37:14;0.90;;;0.90;;
11263;SDS011;5689;48.798;9.070;2022-12-07T03:39:50;1.03;;;1.03;;
11263;SDS011;5689;48.798;9.070;2022-12-07T03:42:26;1.00;;;1.00;;
11263;SDS011;5689;48.798;9.070;2022-12-07T03:44:54;1.00;;;1.00;;
11263;SDS011;5689;48.798;9.070;2022-12-07T03:47:25;1.07;;;1.07;;
11263;SDS011;5689;48.798;9.070;2022-12-07T03:49:59;1.10;;;1.10;;
11263;SDS011;5689;48.798;9.070;2022-12-07T03:52:34;1.00;;;1.00;;
11263;SDS011;5689;48.798;9.070;2022-12-07T03:55:07;1.00;;;1.00;;
11263;SDS011;5689;48.798;9.070;2022-12-07T03:57:38;1.10;;;1.10;;
11263;SDS011;5689;48.798;9.070;2022-12-07T04:00:09;0.90;;;0.90;;
11263;SDS011;5689;48.798;9.070;2022-12-07T04:02:40;1.07;;;1.07;;
11263;SDS011;5689;48.798;9.070;2022-12-07T04:05:09;1.00;;;1.00;;
11263;SDS011;5689;48.798;9.070;2022-12-07T04:07:38;1.27;;;1.27;;
11263;SDS011;5689;48.798;9.070;2022-12-07T04:10:06;0.93;;;0.93;;
11263;SDS011;5689;48.798;9.070;2022-12-07T04:12:34;1.07;;;1.07;;
11263;SDS011;5689;48.798;9.070;2022-12-07T04:15:03;1.13;;;1.13;;
11263;SDS011;5689;48.798;9.070;2022-12-07T04:17:32;1.07;;;1.07;;
11263;SDS011;5689;48.798;9.070;2022-12-07T04:20:01;0.93;;;0.93;;
11263;SDS011;5689;48.798;9.070;2022-12-07T04:22:30;1.30;;;1.30;;
11263;SDS011;5689;48.798;9.070;2022-12-07T04:24:58;1.10;;;1.10;;
11263;SDS011;5689;48.798;9.070;2022-12-07T04:27:26;1.30;;;1.30;;
11263;SDS011;5689;48.798;9.070;2022-12-07T04:29:54;1.30;;;1.30;;
11263;SDS011;5689;48.798;9.070;2022-12-07T04:32:22;1.40;;;1.40;;
11263;SDS011;5689;48.798;9.070;2022-12-07T04:34:50;1.00;;;1.00;;
11263;SDS011;5689;48.798;9.070;2022-12-07T04:37:22;1.27;;;1.27;;
11263;SDS011;5689;48.798;9.070;2022-12-07T04:39:50;1.20;;;1.20;;
11263;SDS011;5689;48.798;9.070;2022-12-07T04:42:18;1.20;;;1.20;;
11263;SDS011;5689;48.798;9.070;2022-12-07T04:44:46;1.30;;;1.30;;
11263;SDS011;5689;48.798;9.070;2022-12-07T04:47:14;1.07;;;1.07;;
11263;SDS011;5689;48.798;9.070;2022-12-07T04:49:42;1.20;;;1.20;;
11263;SDS011;5689;48.798;9.070;2022-12-07T04:52:10;1.07;;;1.07;;
11263;SDS011;5689;48.798;9.070;2022-12-07T04:54:39;1.20;;;1.20;;
11263;SDS011;5689;48.798;9.070;2022-12-07T04:57:07;1.00;;;1.00;;
11263;SDS011;5689;48.798;9.070;2022-12-07T04:59:35;1.20;;;1.20;;
11263;SDS011;5689;48.798;9.070;2022-12-07T05:02:06;1.10;;;1.10;;
11263;SDS011;5689;48.798;9.070;2022-12-07T05:04:34;1.10;;;1.10;;
11263;SDS011;5689;48.798;9.070;2022-12-07T05:07:02;1.00;;;1.00;;
11263;SDS011;5689;48.798;9.070;2022-12-07T05:09:30;1.20;;;1.20;;
11263;SDS011;5689;48.798;9.070;2022-12-07T05:11:59;1.10;;;1.10;;
11263;SDS011;5689;48.798;9.070;2022-12-07T05:14:27;1.00;;;1.00;;
11263;SDS011;5689;48.798;9.070;2022-12-07T05:16:55;1.30;;;1.30;;
11263;SDS011;5689;48.798;9.070;2022-12-07T05:19:23;1.20;;;1.20;;
11263;SDS011;5689;48.798;9.070;2022-12-07T05:21:52;1.30;;;1.30;;
11263;SDS011;5689;48.798;9.070;2022-12-07T05:24:20;1.30;;;1.30;;
11263;SDS011;5689;48.798;9.070;2022-12-07T05:26:48;1.20;;;1.20;;
11263;SDS011;5689;48.798;9.070;2022-12-07T05:29:17;1.20;;;1.20;;
11263;SDS011;5689;48.798;9.070;2022-12-07T05:31:45;1.50;;;1.50;;
11263;SDS011;5689;48.798;9.070;2022-12-07T05:34:14;1.50;;;1.50;;
11263;SDS011;5689;48.798;9.070;2022-12-07T05:36:42;1.30;;;1.30;;
11263;SDS011;5689;48.798;9.070;2022-12-07T05:39:10;1.27;;;1.27;;
11263;SDS011;5689;48.798;9.070;2022-12-07T05:41:38;1.60;;;1.60;;
11263;SDS011;5689;48.798;9.070;2022-12-07T05:44:33;1.60;;;1.60;;
11263;SDS011;5689;48.798;9.070;2022-12-07T05:47:01;1.53;;;1.53;;
11263;SDS011;5689;48.798;9.070;2022-12-07T05:49:29;1.50;;;1.50;;
11263;SDS011;5689;48.798;9.070;2022-12-07T05:51:57;1.40;;;1.40;;
11263;SDS011;5689;48.798;9.070;2022-12-07T05:54:26;1.40;;;1.40;;
11263;SDS011;5689;48.798;9.070;2022-12-07T05:56:54;1.40;;;1.40;;
11263;SDS011;5689;48.798;9.070;2022-12-07T05:59:22;1.40;;;1.40;;
11263;SDS011;5689;48.798;9.070;2022-12-07T06:01:52;1.53;;;1.53;;
11263;SDS011;5689;48.798;9.070;2022-12-07T06:04:21;1.17;;;1.17;;
11263;SDS011;5689;48.798;9.070;2022-12-07T06:06:50;1.70;;;1.70;;
11263;SDS011;5689;48.798;9.070;2022-12-07T06:09:19;1.20;;;1.20;;
11263;SDS011;5689;48.798;9.070;2022-12-07T06:11:48;1.10;;;1.10;;
11263;SDS011;5689;48.798;9.070;2022-12-07T06:14:47;1.30;;;1.30;;
11263;SDS011;5689;48.798;9.070;2022-12-07T06:17:17;1.30;;;1.30;;
11263;SDS011;5689;48.798;9.070;2022-12-07T06:19:45;1.33;;;1.33;;
11263;SDS011;5689;48.798;9.070;2022-12-07T06:22:13;1.10;;;1.10;;
11263;SDS011;5689;48.798;9.070;2022-12-07T06:24:42;1.43;;;1.43;;
11263;SDS011;5689;48.798;9.070;2022-12-07T06:27:10;1.40;;;1.40;;
11263;SDS011;5689;48.798;9.070;2022-12-07T06:29:38;1.17;;;1.17;;
11263;SDS011;5689;48.798;9.070;2022-12-07T06:32:06;1.27;;;1.27;;
11263;SDS011;5689;48.798;9.070;2022-12-07T06:34:36;1.00;;;1.00;;
11263;SDS011;5689;48.798;9.070;2022-12-07T06:37:04;1.10;;;1.10;;
11263;SDS011;5689;48.798;9.070;2022-12-07T06:39:32;1.43;;;1.43;;
11263;SDS011;5689;48.798;9.070;2022-12-07T06:42:00;1.33;;;1.33;;
11263;SDS011;5689;48.798;9.070;2022-12-07T06:44:28;1.10;;;1.10;;
11263;SDS011;5689;48.798;9.070;2022-12-07T06:46:56;1.30;;;1.30;;
11263;SDS011;5689;48.798;9.070;2022-12-07T06:49:39;1.30;;;1.30;;
11263;SDS011;5689;48.798;9.070;2022-12-07T06:52:07;1.10;;;1.10;;
11263;SDS011;5689;48.798;9.070;2022-12-07T06:54:35;1.30;;;1.30;;
11263;SDS011;5689;48.798;9.070;2022-12-07T06:57:03;1.20;;;1.20;;
11263;SDS011;5689;48.798;9.070;2022-12-07T06:59:31;1.33;;;1.33;;
11263;SDS011;5689;48.798;9.070;2022-12-07T07:01:59;1.30;;;1.30;;
11263;SDS011;5689;48.798;9.070;2022-12-07T07:04:27;1.00;;;1.00;;
11263;SDS011;5689;48.798;9.070;2022-12-07T07:06:56;1.47;;;1.47;;
11263;SDS011;5689;48.798;9.070;2022-12-07T07:09:25;1.43;;;1.43;;
11263;SDS011;5689;48.798;9.070;2022-12-07T07:11:53;1.10;;;1.10;;
11263;SDS011;5689;48.798;9.070;2022-12-07T07:14:21;1.10;;;1.10;;
11263;SDS011;5689;48.798;9.070;2022-12-07T07:16:49;1.23;;;1.23;;
11263;SDS011;5689;48.798;9.070;2022-12-07T07:19:17;1.20;;;1.20;;
11263;SDS011;5689;48.798;9.070;2022-12-07T07:21:45;1.20;;;1.20;;
11263;SDS011;5689;48.798;9.070;2022-12-07T07:24:15;1.03;;;1.03;;
11263;SDS011;5689;48.798;9.070;2022-12-07T07:26:43;1.00;;;1.00;;
11263;SDS011;5689;48.798;9.070;2022-12-07T07:29:11;1.20;;;1.20;;
11263;SDS011;5689;48.798;9.070;2022-12-07T07:31:39;1.10;;;1.10;;
11263;SDS011;5689;48.798;9.070;2022-12-07T07:34:07;1.07;;;1.07;;
11263;SDS011;5689;48.798;9.070;2022-12-07T07:36:35;1.10;;;1.10;;
11263;SDS011;5689;48.798;9.070;2022-12-07T07:39:03;1.00;;;1.00;;
11263;SDS011;5689;48.798;9.070;2022-12-07T07:41:32;1.13;;;1.13;;
11263;SDS011;5689;48.798;9.070;2022-12-07T07:44:01;1.03;;;1.03;;
11263;SDS011;5689;48.798;9.070;2022-12-07T07:46:29;1.30;;;1.30;;
11263;SDS011;5689;48.798;9.070;2022-12-07T07:48:59;1.23;;;1.23;;
11263;SDS011;5689;48.798;9.070;2022-12-07T07:51:27;1.20;;;1.20;;
11263;SDS011;5689;48.798;9.070;2022-12-07T07:53:55;1.00;;;1.00;;
11263;SDS011;5689;48.798;9.070;2022-12-07T07:56:23;1.20;;;1.20;;
11263;SDS011;5689;48.798;9.070;2022-12-07T07:58:52;1.20;;;1.20;;
11263;SDS011;5689;48.798;9.070;2022-12-07T08:01:21;1.00;;;1.00;;
11263;SDS011;5689;48.798;9.070;2022-12-07T08:03:49;1.07;;;1.07;;
11263;SDS011;5689;48.798;9.070;2022-12-07T08:06:17;1.07;;;1.07;;
11263;SDS011;5689;48.798;9.070;2022-12-07T08:08:45;1.10;;;1.10;;
11263;SDS011;5689;48.798;9.070;2022-12-07T08:11:13;1.10;;;1.10;;
11263;SDS011;5689;48.798;9.070;2022-12-07T08:13:41;1.20;;;1.20;;
11263;SDS011;5689;48.798;9.070;2022-12-07T08:16:10;1.07;;;1.07;;
11263;SDS011;5689;48.798;9.070;2022-12-07T08:18:39;1.00;;;1.00;;
11263;SDS011;5689;48.798;9.070;2022-12-07T08:21:09;1.10;;;1.10;;
11263;SDS011;5689;48.798;9.070;2022-12-07T08:23:39;1.17;;;1.17;;
11263;SDS011;5689;48.798;9.070;2022-12-07T08:26:08;0.90;;;0.90;;
11263;SDS011;5689;48.798;9.070;2022-12-07T08:28:37;0.93;;;0.93;;
11263;SDS011;5689;48.798;9.070;2022-12-07T08:31:07;0.97;;;0.97;;
11263;SDS011;5689;48.798;9.070;2022-12-07T08:33:39;1.00;;;1.00;;
11263;SDS011;5689;48.798;9.070;2022-12-07T08:36:08;1.03;;;1.03;;
11263;SDS011;5689;48.798;9.070;2022-12-07T08:38:38;1.00;;;1.00;;
11263;SDS011;5689;48.798;9.070;2022-12-07T08:41:08;1.00;;;1.00;;
11263;SDS011;5689;48.798;9.070;2022-12-07T08:43:36;0.93;;;0.93;;
11263;SDS011;5689;48.798;9.070;2022-12-07T08:46:06;1.00;;;1.00;;
11263;SDS011;5689;48.798;9.070;2022-12-07T08:48:41;0.97;;;0.97;;
11263;SDS011;5689;48.798;9.070;2022-12-07T08:51:13;0.97;;;0.97;;
11263;SDS011;5689;48.798;9.070;2022-12-07T08:53:41;0.90;;;0.90;;
11263;SDS011;5689;48.798;9.070;2022-12-07T08:56:11;0.97;;;0.97;;
11263;SDS011;5689;48.798;9.070;2022-12-07T08:58:39;0.90;;;0.90;;
11263;SDS011;5689;48.798;9.070;2022-12-07T09:01:07;0.90;;;0.90;;
11263;SDS011;5689;48.798;9.070;2022-12-07T09:03:36;1.00;;;1.00;;
11263;SDS011;5689;48.798;9.070;2022-12-07T09:06:05;1.10;;;1.10;;
11263;SDS011;5689;48.798;9.070;2022-12-07T09:08:35;1.00;;;1.00;;
11263;SDS011;5689;48.798;9.070;2022-12-07T09:11:07;0.90;;;0.90;;
11263;SDS011;5689;48.798;9.070;2022-12-07T09:13:35;1.00;;;1.00;;
11263;SDS011;5689;48.798;9.070;2022-12-07T09:16:03;0.90;;;0.90;;
11263;SDS011;5689;48.798;9.070;2022-12-07T09:18:32;0.80;;;0.80;;
11263;SDS011;5689;48.798;9.070;2022-12-07T09:21:00;0.80;;;0.80;;
11263;SDS011;5689;48.798;9.070;2022-12-07T09:23:30;1.00;;;1.00;;
11263;SDS011;5689;48.798;9.070;2022-12-07T09:25:58;0.93;;;0.93;;
11263;SDS011;5689;48.798;9.070;2022-12-07T09:28:28;1.17;;;1.17;;
11263;SDS011;5689;48.798;9.070;2022-12-07T09:30:57;0.90;;;0.90;;
11263;SDS011;5689;48.798;9.070;2022-12-07T09:33:45;0.97;;;0.97;;
11263;SDS011;5689;48.798;9.070;2022-12-07T09:36:13;0.80;;;0.80;;
11263;SDS011;5689;48.798;9.070;2022-12-07T09:38:43;0.80;;;0.80;;
11263;SDS011;5689;48.798;9.070;2022-12-07T09:41:10;0.93;;;0.93;;
11263;SDS011;5689;48.798;9.070;2022-12-07T09:43:38;0.90;;;0.90;;
11263;SDS011;5689;48.798;9.070;2022-12-07T09:46:09;0.90;;;0.90;;
11263;SDS011;5689;48.798;9.070;2022-12-07T09:48:41;0.80;;;0.80;;
11263;SDS011;5689;48.798;9.070;2022-12-07T09:51:13;0.70;;;0.70;;
11263;SDS011;5689;48.798;9.070;2022-12-07T09:53:49;0.80;;;0.80;;
11263;SDS011;5689;48.798;9.070;2022-12-07T09:56:19;0.77;;;0.77;;
11263;SDS011;5689;48.798;9.070;2022-12-07T09:58:48;0.90;;;0.90;;
11263;SDS011;5689;48.798;9.070;2022-12-07T10:01:17;0.70;;;0.70;;
11263;SDS011;5689;48.798;9.070;2022-12-07T10:03:48;0.90;;;0.90;;
11263;SDS011;5689;48.798;9.070;2022-12-07T10:06:19;0.73;;;0.73;;
11263;SDS011;5689;48.798;9.070;2022-12-07T10:08:49;0.70;;;0.70;;
11263;SDS011;5689;48.798;9.070;2022-12-07T10:11:17;0.70;;;0.70;;
11263;SDS011;5689;48.798;9.070;2022-12-07T10:13:46;0.70;;;0.70;;
11263;SDS011;5689;48.798;9.070;2022-12-07T10:16:28;0.80;;;0.80;;
11263;SDS011;5689;48.798;9.070;2022-12-07T10:19:17;0.60;;;0.60;;
11263;SDS011;5689;48.798;9.070;2022-12-07T10:21:59;0.70;;;0.70;;
11263;SDS011;5689;48.798;9.070;2022-12-07T10:24:30;0.73;;;0.73;;
11263;SDS011;5689;48.798;9.070;2022-12-07T10:26:59;0.60;;;0.60;;
11263;SDS011;5689;48.798;9.070;2022-12-07T10:29:29;0.83;;;0.83;;
11263;SDS011;5689;48.798;9.070;2022-12-07T10:31:59;0.73;;;0.73;;
11263;SDS011;5689;48.798;9.070;2022-12-07T10:34:31;0.70;;;0.70;;
11263;SDS011;5689;48.798;9.070;2022-12-07T10:37:11;0.70;;;0.70;;
11263;SDS011;5689;48.798;9.070;2022-12-07T10:39:44;0.70;;;0.70;;
11263;SDS011;5689;48.798;9.070;2022-12-07T10:42:17;0.87;;;0.87;;
11263;SDS011;5689;48.798;9.070;2022-12-07T10:44:47;0.87;;;0.87;;
11263;SDS011;5689;48.798;9.070;2022-12-07T10:47:25;0.80;;;0.80;;
11263;SDS011;5689;48.798;9.070;2022-12-07T10:50:18;0.80;;;0.80;;
11263;SDS011;5689;48.798;9.070;2022-12-07T10:53:09;1.00;;;1.00;;
11263;SDS011;5689;48.798;9.070;2022-12-07T10:55:56;1.00;;;1.00;;
11263;SDS011;5689;48.798;9.070;2022-12-07T10:58:48;0.80;;;0.80;;
11263;SDS011;5689;48.798;9.070;2022-12-07T11:01:24;0.83;;;0.83;;
11263;SDS011;5689;48.798;9.070;2022-12-07T11:04:06;0.90;;;0.90;;
11263;SDS011;5689;48.798;9.070;2022-12-07T11:06:46;0.80;;;0.80;;
11263;SDS011;5689;48.798;9.070;2022-12-07T11:09:26;0.80;;;0.80;;
11263;SDS011;5689;48.798;9.070;2022-12-07T11:12:27;0.70;;;0.70;;
11263;SDS011;5689;48.798;9.070;2022-12-07T11:15:08;1.07;;;1.07;;
11263;SDS011;5689;48.798;9.070;2022-12-07T11:17:43;0.80;;;0.80;;
11263;SDS011;5689;48.798;9.070;2022-12-07T11:20:20;1.07;;;1.07;;
11263;SDS011;5689;48.798;9.070;2022-12-07T11:23:03;0.97;;;0.97;;
11263;SDS011;5689;48.798;9.070;2022-12-07T11:25:42;0.90;;;0.90;;
11263;SDS011;5689;48.798;9.070;2022-12-07T11:28:23;0.80;;;0.80;;
11263;SDS011;5689;48.798;9.070;2022-12-07T11:31:08;1.07;;;1.07;;
11263;SDS011;5689;48.798;9.070;2022-12-07T11:33:41;0.80;;;0.80;;
11263;SDS011;5689;48.798;9.070;2022-12-07T11:36:17;1.00;;;1.00;;
11263;SDS011;5689;48.798;9.070;2022-12-07T11:39:01;0.90;;;0.90;;
11263;SDS011;5689;48.798;9.070;2022-12-07T11:41:33;1.03;;;1.03;;
11263;SDS011;5689;48.798;9.070;2022-12-07T11:44:06;0.90;;;0.90;;
11263;SDS011;5689;48.798;9.070;2022-12-07T11:46:40;1.30;;;1.30;;
11263;SDS011;5689;48.798;9.070;2022-12-07T11:49:15;0.97;;;0.97;;
11263;SDS011;5689;48.798;9.070;2022-12-07T11:51:48;0.97;;;0.97;;
11263;SDS011;5689;48.798;9.070;2022-12-07T11:54:20;0.90;;;0.90;;
11263;SDS011;5689;48.798;9.070;2022-12-07T11:56:51;1.20;;;1.20;;
11263;SDS011;5689;48.798;9.070;2022-12-07T11:59:25;1.03;;;1.03;;
11263;SDS011;5689;48.798;9.070;2022-12-07T12:02:00;0.87;;;0.87;;
11263;SDS011;5689;48.798;9.070;2022-12-07T12:04:40;0.87;;;0.87;;
11263;SDS011;5689;48.798;9.070;2022-12-07T12:07:17;0.90;;;0.90;;
11263;SDS011;5689;48.798;9.070;2022-12-07T12:10:14;1.00;;;1.00;;
11263;SDS011;5689;48.798;9.070;2022-12-07T12:13:12;0.87;;;0.87;;
11263;SDS011;5689;48.798;9.070;2022-12-07T12:16:19;1.10;;;1.10;;
11263;SDS011;5689;48.798;9.070;2022-12-07T12:19:23;1.07;;;1.07;;
11263;SDS011;5689;48.798;9.070;2022-12-07T12:22:00;1.10;;;1.10;;
11263;SDS011;5689;48.798;9.070;2022-12-07T12:24:37;1.00;;;1.00;;
11263;SDS011;5689;48.798;9.070;2022-12-07T12:27:07;1.20;;;1.20;;
11263;SDS011;5689;48.798;9.070;2022-12-07T12:29:39;1.10;;;1.10;;
11263;SDS011;5689;48.798;9.070;2022-12-07T12:32:15;1.10;;;1.10;;
11263;SDS011;5689;48.798;9.070;2022-12-07T12:34:59;0.90;;;0.90;;
11263;SDS011;5689;48.798;9.070;2022-12-07T12:37:40;0.93;;;0.93;;
11263;SDS011;5689;48.798;9.070;2022-12-07T12:40:37;0.93;;;0.93;;
11263;SDS011;5689;48.798;9.070;2022-12-07T12:49:39;0.90;;;0.90;;
11263;SDS011;5689;48.798;9.070;2022-12-07T12:53:19;1.10;;;1.10;;
11263;SDS011;5689;48.798;9.070;2022-12-07T12:59:22;0.90;;;0.90;;
11263;SDS011;5689;48.798;9.070;2022-12-07T13:01:54;1.07;;;1.07;;
11263;SDS011;5689;48.798;9.070;2022-12-07T13:04:25;1.00;;;1.00;;
11263;SDS011;5689;48.798;9.070;2022-12-07T13:07:12;0.90;;;0.90;;
11263;SDS011;5689;48.798;9.070;2022-12-07T13:10:01;1.20;;;1.20;;
11263;SDS011;5689;48.798;9.070;2022-12-07T13:12:30;0.83;;;0.83;;
11263;SDS011;5689;48.798;9.070;2022-12-07T13:14:59;0.90;;;0.90;;
11263;SDS011;5689;48.798;9.070;2022-12-07T13:20:45;1.10;;;1.10;;
11263;SDS011;5689;48.798;9.070;2022-12-07T13:23:20;0.90;;;0.90;;
11263;SDS011;5689;48.798;9.070;2022-12-07T13:25:55;1.07;;;1.07;;
11263;SDS011;5689;48.798;9.070;2022-12-07T13:28:33;1.00;;;1.00;;
11263;SDS011;5689;48.798;9.070;2022-12-07T13:31:11;0.80;;;0.80;;
11263;SDS011;5689;48.798;9.070;2022-12-07T13:33:51;1.00;;;1.00;;
11263;SDS011;5689;48.798;9.070;2022-12-07T13:36:20;1.20;;;1.20;;
11263;SDS011;5689;48.798;9.070;2022-12-07T13:38:53;0.90;;;0.90;;
11263;SDS011;5689;48.798;9.070;2022-12-07T13:41:23;1.10;;;1.10;;
11263;SDS011;5689;48.798;9.070;2022-12-07T13:43:55;0.70;;;0.70;;
11263;SDS011;5689;48.798;9.070;2022-12-07T13:46:43;0.90;;;0.90;;
11263;SDS011;5689;48.798;9.070;2022-12-07T13:49:17;0.90;;;0.90;;
11263;SDS011;5689;48.798;9.070;2022-12-07T13:51:47;0.93;;;0.93;;
11263;SDS011;5689;48.798;9.070;2022-12-07T13:54:17;1.03;;;1.03;;
11263;SDS011;5689;48.798;9.070;2022-12-07T13:56:47;1.03;;;1.03;;
11263;SDS011;5689;48.798;9.070;2022-12-07T13:59:19;0.90;;;0.90;;
11263;SDS011;5689;48.798;9.070;2022-12-07T14:01:49;1.00;;;1.00;;
11263;SDS011;5689;48.798;9.070;2022-12-07T14:04:19;0.90;;;0.90;;
11263;SDS011;5689;48.798;9.070;2022-12-07T14:06:58;0.90;;;0.90;;
11263;SDS011;5689;48.798;9.070;2022-12-07T14:09:29;1.20;;;1.10;;
11263;SDS011;5689;48.798;9.070;2022-12-07T14:11:57;0.83;;;0.83;;
11263;SDS011;5689;48.798;9.070;2022-12-07T14:14:26;0.90;;;0.90;;
11263;SDS011;5689;48.798;9.070;2022-12-07T14:17:02;0.80;;;0.80;;
11263;SDS011;5689;48.798;9.070;2022-12-07T14:19:46;1.03;;;1.03;;
11263;SDS011;5689;48.798;9.070;2022-12-07T14:22:24;1.10;;;1.10;;
11263;SDS011;5689;48.798;9.070;2022-12-07T14:25:09;0.87;;;0.87;;
11263;SDS011;5689;48.798;9.070;2022-12-07T14:27:48;1.03;;;1.03;;
11263;SDS011;5689;48.798;9.070;2022-12-07T14:30:24;0.70;;;0.70;;
11263;SDS011;5689;48.798;9.070;2022-12-07T14:32:55;0.93;;;0.93;;
11263;SDS011;5689;48.798;9.070;2022-12-07T14:35:26;0.90;;;0.90;;
11263;SDS011;5689;48.798;9.070;2022-12-07T14:37:55;1.00;;;1.00;;
11263;SDS011;5689;48.798;9.070;2022-12-07T14:40:25;0.90;;;0.90;;
11263;SDS011;5689;48.798;9.070;2022-12-07T14:42:55;1.00;;;1.00;;
11263;SDS011;5689;48.798;9.070;2022-12-07T14:45:26;1.00;;;1.00;;
11263;SDS011;5689;48.798;9.070;2022-12-07T14:47:54;1.10;;;1.10;;
11263;SDS011;5689;48.798;9.070;2022-12-07T14:50:43;1.13;;;1.13;;
11263;SDS011;5689;48.798;9.070;2022-12-07T14:53:36;1.03;;;1.03;;
11263;SDS011;5689;48.798;9.070;2022-12-07T14:56:10;1.10;;;1.10;;
11263;SDS011;5689;48.798;9.070;2022-12-07T14:58:38;1.07;;;1.07;;
11263;SDS011;5689;48.798;9.070;2022-12-07T15:01:07;1.00;;;1.00;;
11263;SDS011;5689;48.798;9.070;2022-12-07T15:03:35;0.90;;;0.90;;
11263;SDS011;5689;48.798;9.070;2022-12-07T15:06:04;1.10;;;1.10;;
11263;SDS011;5689;48.798;9.070;2022-12-07T15:08:33;1.30;;;1.30;;
11263;SDS011;5689;48.798;9.070;2022-12-07T15:11:01;0.90;;;0.90;;
11263;SDS011;5689;48.798;9.070;2022-12-07T15:13:31;1.00;;;1.00;;
11263;SDS011;5689;48.798;9.070;2022-12-07T15:16:18;1.10;;;1.10;;
11263;SDS011;5689;48.798;9.070;2022-12-07T15:18:47;1.00;;;1.00;;
11263;SDS011;5689;48.798;9.070;2022-12-07T15:21:30;1.10;;;1.10;;
11263;SDS011;5689;48.798;9.070;2022-12-07T15:23:58;0.90;;;0.90;;
11263;SDS011;5689;48.798;9.070;2022-12-07T15:26:26;0.90;;;0.90;;
11263;SDS011;5689;48.798;9.070;2022-12-07T15:28:55;1.10;;;1.10;;
11263;SDS011;5689;48.798;9.070;2022-12-07T15:31:23;1.10;;;1.10;;
11263;SDS011;5689;48.798;9.070;2022-12-07T15:34:11;1.20;;;1.20;;
11263;SDS011;5689;48.798;9.070;2022-12-07T15:36:39;1.27;;;1.27;;
11263;SDS011;5689;48.798;9.070;2022-12-07T15:39:08;1.10;;;1.10;;
11263;SDS011;5689;48.798;9.070;2022-12-07T15:41:39;1.10;;;1.10;;
11263;SDS011;5689;48.798;9.070;2022-12-07T15:44:09;1.40;;;1.40;;
11263;SDS011;5689;48.798;9.070;2022-12-07T15:46:56;1.13;;;1.13;;
11263;SDS011;5689;48.798;9.070;2022-12-07T15:49:24;1.17;;;1.17;;